K3V5 weather

CLOSED Fort Collins Downtown Airport
Fort Collins, Colorado, United States

Public forecast

Using degrees Fahrenheit for public forecast. Weather courtesy of forecast.io.

METAR (pilot weather report)

Closest report is Northern Colorado Regional Airport, 8.3 nm (15.4 km) S. Retrieved 2019/08/25 00:56 UTC (51 minutes ago):

KFNL 250056Z AUTO 00000KT 10SM CLR 28/07 A2999 RMK AO2 SLP097 T02780067

TAF (pilot weather forecast)

Forecast is more than 12 hours old.

Closest forecast is Cheyenne Regional Jerry Olson Field, 35.6 nm (66.0 km) NNE. Retrieved 2019/08/24 00:22 UTC (1 day ago):

TAF KCYS 242320Z 2500/2524 35012G23KT P6SM SKC FM250200 20009KT P6SM SKC FM250600 27010KT P6SM SKC FM251500 30022G33KT P6SM SKC